sensor_id;sensor_type;location;lat;lon;timestamp;temperature;humidity
17284;DHT22;8760;52.248;20.952;2023-06-14T00:00:16;12.80;99.90
17284;DHT22;8760;52.248;20.952;2023-06-14T00:02:43;12.80;99.90
17284;DHT22;8760;52.248;20.952;2023-06-14T00:05:10;12.90;99.90
17284;DHT22;8760;52.248;20.952;2023-06-14T00:07:39;12.80;99.90
17284;DHT22;8760;52.248;20.952;2023-06-14T00:10:11;12.80;99.90
17284;DHT22;8760;52.248;20.952;2023-06-14T00:12:38;12.70;99.90
17284;DHT22;8760;52.248;20.952;2023-06-14T00:15:06;12.80;99.90
17284;DHT22;8760;52.248;20.952;2023-06-14T00:17:35;12.80;99.90
17284;DHT22;8760;52.248;20.952;2023-06-14T00:20:03;12.80;99.90
17284;DHT22;8760;52.248;20.952;2023-06-14T00:22:31;12.80;99.90
17284;DHT22;8760;52.248;20.952;2023-06-14T00:24:58;12.80;99.90
17284;DHT22;8760;52.248;20.952;2023-06-14T00:27:27;12.80;99.90
17284;DHT22;8760;52.248;20.952;2023-06-14T00:29:53;12.80;99.90
17284;DHT22;8760;52.248;20.952;2023-06-14T00:32:20;12.80;99.90
17284;DHT22;8760;52.248;20.952;2023-06-14T00:34:51;12.80;99.90
17284;DHT22;8760;52.248;20.952;2023-06-14T00:37:18;12.70;99.90
17284;DHT22;8760;52.248;20.952;2023-06-14T00:39:44;12.70;99.90
17284;DHT22;8760;52.248;20.952;2023-06-14T00:42:14;12.80;99.90
17284;DHT22;8760;52.248;20.952;2023-06-14T00:44:50;12.80;99.90
17284;DHT22;8760;52.248;20.952;2023-06-14T00:47:17;12.70;99.90
17284;DHT22;8760;52.248;20.952;2023-06-14T00:49:45;12.70;99.90
17284;DHT22;8760;52.248;20.952;2023-06-14T00:52:12;12.80;99.90
17284;DHT22;8760;52.248;20.952;2023-06-14T00:54:40;12.80;99.90
17284;DHT22;8760;52.248;20.952;2023-06-14T00:57:07;12.70;99.90
17284;DHT22;8760;52.248;20.952;2023-06-14T00:59:41;12.80;99.90
17284;DHT22;8760;52.248;20.952;2023-06-14T01:02:10;12.80;99.90
17284;DHT22;8760;52.248;20.952;2023-06-14T01:04:37;12.70;99.90
17284;DHT22;8760;52.248;20.952;2023-06-14T01:07:15;12.70;99.90
17284;DHT22;8760;52.248;20.952;2023-06-14T01:09:52;12.80;99.90
17284;DHT22;8760;52.248;20.952;2023-06-14T01:12:24;12.80;99.90
17284;DHT22;8760;52.248;20.952;2023-06-14T01:14:54;12.80;99.90
17284;DHT22;8760;52.248;20.952;2023-06-14T01:17:23;12.80;99.90
17284;DHT22;8760;52.248;20.952;2023-06-14T01:19:52;12.80;99.90
17284;DHT22;8760;52.248;20.952;2023-06-14T01:22:24;12.80;99.90
17284;DHT22;8760;52.248;20.952;2023-06-14T01:24:53;12.80;99.90
17284;DHT22;8760;52.248;20.952;2023-06-14T01:27:22;12.80;99.90
17284;DHT22;8760;52.248;20.952;2023-06-14T01:29:54;12.80;99.90
17284;DHT22;8760;52.248;20.952;2023-06-14T01:32:23;12.80;99.90
17284;DHT22;8760;52.248;20.952;2023-06-14T01:34:51;12.80;99.90
17284;DHT22;8760;52.248;20.952;2023-06-14T01:37:19;12.80;99.90
17284;DHT22;8760;52.248;20.952;2023-06-14T01:39:47;12.80;99.90
17284;DHT22;8760;52.248;20.952;2023-06-14T01:42:16;12.80;99.90
17284;DHT22;8760;52.248;20.952;2023-06-14T01:44:44;12.80;99.90
17284;DHT22;8760;52.248;20.952;2023-06-14T01:47:12;12.80;99.90
17284;DHT22;8760;52.248;20.952;2023-06-14T01:49:39;12.80;99.90
17284;DHT22;8760;52.248;20.952;2023-06-14T01:52:06;12.80;99.90
17284;DHT22;8760;52.248;20.952;2023-06-14T01:54:35;12.80;99.90
17284;DHT22;8760;52.248;20.952;2023-06-14T01:57:03;12.80;99.90
17284;DHT22;8760;52.248;20.952;2023-06-14T01:59:34;12.80;99.90
17284;DHT22;8760;52.248;20.952;2023-06-14T02:02:02;12.80;99.90
17284;DHT22;8760;52.248;20.952;2023-06-14T02:04:29;12.80;99.90
17284;DHT22;8760;52.248;20.952;2023-06-14T02:06:56;12.80;99.90
17284;DHT22;8760;52.248;20.952;2023-06-14T02:09:23;12.80;99.90
17284;DHT22;8760;52.248;20.952;2023-06-14T02:11:50;12.80;99.90
17284;DHT22;8760;52.248;20.952;2023-06-14T02:14:17;12.80;99.90
17284;DHT22;8760;52.248;20.952;2023-06-14T02:16:45;12.80;99.90
17284;DHT22;8760;52.248;20.952;2023-06-14T02:19:14;12.90;99.90
17284;DHT22;8760;52.248;20.952;2023-06-14T02:21:41;12.90;99.90
17284;DHT22;8760;52.248;20.952;2023-06-14T02:24:08;12.90;99.90
17284;DHT22;8760;52.248;20.952;2023-06-14T02:26:35;12.90;99.90
17284;DHT22;8760;52.248;20.952;2023-06-14T02:29:03;12.90;99.90
17284;DHT22;8760;52.248;20.952;2023-06-14T02:31:31;12.90;99.90
17284;DHT22;8760;52.248;20.952;2023-06-14T02:33:59;12.90;99.90
17284;DHT22;8760;52.248;20.952;2023-06-14T02:36:26;12.90;99.90
17284;DHT22;8760;52.248;20.952;2023-06-14T02:38:55;12.90;99.90
17284;DHT22;8760;52.248;20.952;2023-06-14T02:41:23;12.90;99.90
17284;DHT22;8760;52.248;20.952;2023-06-14T02:43:49;12.90;99.90
17284;DHT22;8760;52.248;20.952;2023-06-14T02:46:18;13.00;99.90
17284;DHT22;8760;52.248;20.952;2023-06-14T02:48:45;12.90;99.90
17284;DHT22;8760;52.248;20.952;2023-06-14T02:51:13;13.00;99.90
17284;DHT22;8760;52.248;20.952;2023-06-14T02:53:40;13.00;99.90
17284;DHT22;8760;52.248;20.952;2023-06-14T02:56:07;13.00;99.90
17284;DHT22;8760;52.248;20.952;2023-06-14T02:58:35;13.00;99.90
17284;DHT22;8760;52.248;20.952;2023-06-14T03:01:02;13.00;99.90
17284;DHT22;8760;52.248;20.952;2023-06-14T03:03:29;13.10;99.90
17284;DHT22;8760;52.248;20.952;2023-06-14T03:05:56;13.10;99.90
17284;DHT22;8760;52.248;20.952;2023-06-14T03:08:25;13.10;99.90
17284;DHT22;8760;52.248;20.952;2023-06-14T03:10:53;13.10;99.90
17284;DHT22;8760;52.248;20.952;2023-06-14T03:13:21;13.10;99.90
17284;DHT22;8760;52.248;20.952;2023-06-14T03:15:48;13.10;99.90
17284;DHT22;8760;52.248;20.952;2023-06-14T03:18:16;13.10;99.90
17284;DHT22;8760;52.248;20.952;2023-06-14T03:20:43;13.10;99.90
17284;DHT22;8760;52.248;20.952;2023-06-14T03:23:11;13.20;99.90
17284;DHT22;8760;52.248;20.952;2023-06-14T03:25:40;13.20;99.90
17284;DHT22;8760;52.248;20.952;2023-06-14T03:28:07;13.20;99.90
17284;DHT22;8760;52.248;20.952;2023-06-14T03:30:34;13.20;99.90
17284;DHT22;8760;52.248;20.952;2023-06-14T03:33:01;13.30;99.90
17284;DHT22;8760;52.248;20.952;2023-06-14T03:35:29;13.30;99.90
17284;DHT22;8760;52.248;20.952;2023-06-14T03:37:55;13.30;99.90
17284;DHT22;8760;52.248;20.952;2023-06-14T03:40:22;13.30;99.90
17284;DHT22;8760;52.248;20.952;2023-06-14T03:42:54;13.30;99.90
17284;DHT22;8760;52.248;20.952;2023-06-14T03:45:21;13.30;99.90
17284;DHT22;8760;52.248;20.952;2023-06-14T03:47:48;13.30;99.90
17284;DHT22;8760;52.248;20.952;2023-06-14T03:50:16;13.30;99.90
17284;DHT22;8760;52.248;20.952;2023-06-14T03:52:43;13.30;99.90
17284;DHT22;8760;52.248;20.952;2023-06-14T03:55:10;13.30;99.90
17284;DHT22;8760;52.248;20.952;2023-06-14T03:57:38;13.30;99.90
17284;DHT22;8760;52.248;20.952;2023-06-14T04:00:08;13.30;99.90
17284;DHT22;8760;52.248;20.952;2023-06-14T04:02:37;13.40;99.90
17284;DHT22;8760;52.248;20.952;2023-06-14T04:05:04;13.40;99.90
17284;DHT22;8760;52.248;20.952;2023-06-14T04:07:34;13.40;99.90
17284;DHT22;8760;52.248;20.952;2023-06-14T04:10:06;13.40;99.90
17284;DHT22;8760;52.248;20.952;2023-06-14T04:12:34;13.50;99.90
17284;DHT22;8760;52.248;20.952;2023-06-14T04:15:01;13.50;99.90
17284;DHT22;8760;52.248;20.952;2023-06-14T04:17:29;13.60;99.90
17284;DHT22;8760;52.248;20.952;2023-06-14T04:19:58;13.60;99.90
17284;DHT22;8760;52.248;20.952;2023-06-14T04:22:25;13.60;99.90
17284;DHT22;8760;52.248;20.952;2023-06-14T04:24:54;13.70;99.90
17284;DHT22;8760;52.248;20.952;2023-06-14T04:27:22;13.70;99.90
17284;DHT22;8760;52.248;20.952;2023-06-14T04:29:51;13.70;99.90
17284;DHT22;8760;52.248;20.952;2023-06-14T04:32:23;13.70;99.90
17284;DHT22;8760;52.248;20.952;2023-06-14T04:34:53;13.80;99.90
17284;DHT22;8760;52.248;20.952;2023-06-14T04:37:20;13.80;99.90
17284;DHT22;8760;52.248;20.952;2023-06-14T04:39:47;13.90;99.90
17284;DHT22;8760;52.248;20.952;2023-06-14T04:42:14;13.90;99.90
17284;DHT22;8760;52.248;20.952;2023-06-14T04:44:42;13.90;99.90
17284;DHT22;8760;52.248;20.952;2023-06-14T04:47:09;14.00;99.90
17284;DHT22;8760;52.248;20.952;2023-06-14T04:49:38;14.00;99.90
17284;DHT22;8760;52.248;20.952;2023-06-14T04:52:07;14.00;99.90
17284;DHT22;8760;52.248;20.952;2023-06-14T04:54:35;14.10;99.90
17284;DHT22;8760;52.248;20.952;2023-06-14T04:57:04;14.10;99.90
17284;DHT22;8760;52.248;20.952;2023-06-14T04:59:31;14.20;99.90
17284;DHT22;8760;52.248;20.952;2023-06-14T05:01:59;14.20;99.90
17284;DHT22;8760;52.248;20.952;2023-06-14T05:04:26;14.20;99.90
17284;DHT22;8760;52.248;20.952;2023-06-14T05:06:54;14.20;99.90
17284;DHT22;8760;52.248;20.952;2023-06-14T05:09:22;14.20;99.90
17284;DHT22;8760;52.248;20.952;2023-06-14T05:11:49;14.20;99.90
17284;DHT22;8760;52.248;20.952;2023-06-14T05:14:16;14.30;99.90
17284;DHT22;8760;52.248;20.952;2023-06-14T05:16:43;14.20;99.90
17284;DHT22;8760;52.248;20.952;2023-06-14T05:19:10;14.30;99.90
17284;DHT22;8760;52.248;20.952;2023-06-14T05:21:37;14.20;99.90
17284;DHT22;8760;52.248;20.952;2023-06-14T05:24:04;14.20;99.90
17284;DHT22;8760;52.248;20.952;2023-06-14T05:26:33;14.20;99.90
17284;DHT22;8760;52.248;20.952;2023-06-14T05:29:00;14.30;99.90
17284;DHT22;8760;52.248;20.952;2023-06-14T05:31:28;14.20;99.90
17284;DHT22;8760;52.248;20.952;2023-06-14T05:33:55;14.20;99.90
17284;DHT22;8760;52.248;20.952;2023-06-14T05:36:22;14.20;99.90
17284;DHT22;8760;52.248;20.952;2023-06-14T05:38:49;14.30;99.90
17284;DHT22;8760;52.248;20.952;2023-06-14T05:41:23;14.30;99.90
17284;DHT22;8760;52.248;20.952;2023-06-14T05:43:52;14.40;99.90
17284;DHT22;8760;52.248;20.952;2023-06-14T05:46:20;14.40;99.90
17284;DHT22;8760;52.248;20.952;2023-06-14T05:48:49;14.40;99.90
17284;DHT22;8760;52.248;20.952;2023-06-14T05:51:17;14.50;99.90
17284;DHT22;8760;52.248;20.952;2023-06-14T05:53:45;14.50;99.90
17284;DHT22;8760;52.248;20.952;2023-06-14T05:56:12;14.50;99.90
17284;DHT22;8760;52.248;20.952;2023-06-14T05:58:39;14.50;99.90
17284;DHT22;8760;52.248;20.952;2023-06-14T06:01:07;14.60;99.90
17284;DHT22;8760;52.248;20.952;2023-06-14T06:03:34;14.60;99.90
17284;DHT22;8760;52.248;20.952;2023-06-14T06:06:01;14.80;99.90
17284;DHT22;8760;52.248;20.952;2023-06-14T06:08:28;14.80;99.90
17284;DHT22;8760;52.248;20.952;2023-06-14T06:10:55;14.90;99.90
17284;DHT22;8760;52.248;20.952;2023-06-14T06:13:22;14.90;99.90
17284;DHT22;8760;52.248;20.952;2023-06-14T06:15:49;15.00;99.90
17284;DHT22;8760;52.248;20.952;2023-06-14T06:18:17;15.10;99.90
17284;DHT22;8760;52.248;20.952;2023-06-14T06:20:44;15.30;99.90
17284;DHT22;8760;52.248;20.952;2023-06-14T06:23:12;15.40;99.90
17284;DHT22;8760;52.248;20.952;2023-06-14T06:25:39;15.50;99.90
17284;DHT22;8760;52.248;20.952;2023-06-14T06:28:07;15.70;99.90
17284;DHT22;8760;52.248;20.952;2023-06-14T06:30:34;15.60;99.90
17284;DHT22;8760;52.248;20.952;2023-06-14T06:33:01;15.60;99.90
17284;DHT22;8760;52.248;20.952;2023-06-14T06:35:30;15.60;99.90
17284;DHT22;8760;52.248;20.952;2023-06-14T06:37:59;15.50;99.90
17284;DHT22;8760;52.248;20.952;2023-06-14T06:40:26;15.60;99.90
17284;DHT22;8760;52.248;20.952;2023-06-14T06:42:53;15.60;99.90
17284;DHT22;8760;52.248;20.952;2023-06-14T06:45:20;15.60;99.90
17284;DHT22;8760;52.248;20.952;2023-06-14T06:47:48;15.70;99.90
17284;DHT22;8760;52.248;20.952;2023-06-14T06:50:15;15.70;99.90
17284;DHT22;8760;52.248;20.952;2023-06-14T06:52:44;15.90;99.90
17284;DHT22;8760;52.248;20.952;2023-06-14T06:55:11;16.00;99.90
17284;DHT22;8760;52.248;20.952;2023-06-14T06:57:38;16.10;99.90
17284;DHT22;8760;52.248;20.952;2023-06-14T07:00:06;16.10;99.90
17284;DHT22;8760;52.248;20.952;2023-06-14T07:02:35;16.10;99.90
17284;DHT22;8760;52.248;20.952;2023-06-14T07:05:02;16.10;99.90
17284;DHT22;8760;52.248;20.952;2023-06-14T07:07:29;16.10;99.90
17284;DHT22;8760;52.248;20.952;2023-06-14T07:09:57;16.10;99.90
17284;DHT22;8760;52.248;20.952;2023-06-14T07:12:24;16.00;99.90
17284;DHT22;8760;52.248;20.952;2023-06-14T07:14:51;16.00;99.90
17284;DHT22;8760;52.248;20.952;2023-06-14T07:17:18;15.90;99.90
17284;DHT22;8760;52.248;20.952;2023-06-14T07:19:45;15.90;99.90
17284;DHT22;8760;52.248;20.952;2023-06-14T07:22:12;15.90;99.90
17284;DHT22;8760;52.248;20.952;2023-06-14T07:24:39;15.90;99.90
17284;DHT22;8760;52.248;20.952;2023-06-14T07:27:07;16.00;99.90
17284;DHT22;8760;52.248;20.952;2023-06-14T07:29:34;16.10;99.90
17284;DHT22;8760;52.248;20.952;2023-06-14T07:32:01;16.20;99.90
17284;DHT22;8760;52.248;20.952;2023-06-14T07:34:28;16.20;99.90
17284;DHT22;8760;52.248;20.952;2023-06-14T07:36:55;16.20;99.90
17284;DHT22;8760;52.248;20.952;2023-06-14T07:39:22;16.30;99.90
17284;DHT22;8760;52.248;20.952;2023-06-14T07:41:49;16.50;99.90
17284;DHT22;8760;52.248;20.952;2023-06-14T07:44:17;16.60;99.90
17284;DHT22;8760;52.248;20.952;2023-06-14T07:46:44;16.90;99.90
17284;DHT22;8760;52.248;20.952;2023-06-14T07:49:11;17.20;99.90
17284;DHT22;8760;52.248;20.952;2023-06-14T07:51:38;17.40;99.90
17284;DHT22;8760;52.248;20.952;2023-06-14T07:54:05;17.60;99.90
17284;DHT22;8760;52.248;20.952;2023-06-14T07:56:34;17.60;99.90
17284;DHT22;8760;52.248;20.952;2023-06-14T07:59:01;17.60;99.90
17284;DHT22;8760;52.248;20.952;2023-06-14T08:01:29;17.50;34.40
17284;DHT22;8760;52.248;20.952;2023-06-14T08:03:56;17.40;99.90
17284;DHT22;8760;52.248;20.952;2023-06-14T08:06:24;17.50;99.90
17284;DHT22;8760;52.248;20.952;2023-06-14T08:08:53;17.40;1.00
17284;DHT22;8760;52.248;20.952;2023-06-14T08:11:20;17.40;99.90
17284;DHT22;8760;52.248;20.952;2023-06-14T08:13:49;17.40;99.90
17284;DHT22;8760;52.248;20.952;2023-06-14T08:16:16;17.40;1.00
17284;DHT22;8760;52.248;20.952;2023-06-14T08:18:44;17.50;99.90
17284;DHT22;8760;52.248;20.952;2023-06-14T08:21:11;17.60;99.90
17284;DHT22;8760;52.248;20.952;2023-06-14T08:23:40;17.50;99.90
17284;DHT22;8760;52.248;20.952;2023-06-14T08:26:08;17.50;1.00
17284;DHT22;8760;52.248;20.952;2023-06-14T08:28:35;17.50;1.00
17284;DHT22;8760;52.248;20.952;2023-06-14T08:31:02;17.60;99.90
17284;DHT22;8760;52.248;20.952;2023-06-14T08:33:29;17.60;1.00
17284;DHT22;8760;52.248;20.952;2023-06-14T08:36:03;17.60;99.90
17284;DHT22;8760;52.248;20.952;2023-06-14T08:38:30;17.70;14.80
17284;DHT22;8760;52.248;20.952;2023-06-14T08:40:57;17.70;1.00
17284;DHT22;8760;52.248;20.952;2023-06-14T08:43:24;17.70;99.90
17284;DHT22;8760;52.248;20.952;2023-06-14T08:45:57;17.80;1.00
17284;DHT22;8760;52.248;20.952;2023-06-14T08:48:26;17.80;99.90
17284;DHT22;8760;52.248;20.952;2023-06-14T08:50:54;17.80;99.90
17284;DHT22;8760;52.248;20.952;2023-06-14T08:53:28;17.80;99.90
17284;DHT22;8760;52.248;20.952;2023-06-14T08:55:58;17.90;1.00
17284;DHT22;8760;52.248;20.952;2023-06-14T08:58:27;18.00;2.70
17284;DHT22;8760;52.248;20.952;2023-06-14T09:00:55;18.20;99.90
17284;DHT22;8760;52.248;20.952;2023-06-14T09:03:22;18.20;1.00
17284;DHT22;8760;52.248;20.952;2023-06-14T09:05:56;18.40;99.90
17284;DHT22;8760;52.248;20.952;2023-06-14T09:08:24;18.50;99.90
17284;DHT22;8760;52.248;20.952;2023-06-14T09:10:53;18.60;1.00
17284;DHT22;8760;52.248;20.952;2023-06-14T09:13:20;18.70;99.90
17284;DHT22;8760;52.248;20.952;2023-06-14T09:15:47;18.70;1.00
17284;DHT22;8760;52.248;20.952;2023-06-14T09:18:14;18.70;53.70
17284;DHT22;8760;52.248;20.952;2023-06-14T09:20:41;18.80;99.90
17284;DHT22;8760;52.248;20.952;2023-06-14T09:23:08;18.90;1.00
17284;DHT22;8760;52.248;20.952;2023-06-14T09:25:42;19.10;1.00
17284;DHT22;8760;52.248;20.952;2023-06-14T09:28:11;19.20;99.90
17284;DHT22;8760;52.248;20.952;2023-06-14T09:30:38;19.20;99.90
17284;DHT22;8760;52.248;20.952;2023-06-14T09:33:05;19.20;1.00
17284;DHT22;8760;52.248;20.952;2023-06-14T09:35:32;19.20;1.00
17284;DHT22;8760;52.248;20.952;2023-06-14T09:37:59;19.10;1.00
17284;DHT22;8760;52.248;20.952;2023-06-14T09:40:26;19.10;1.00
17284;DHT22;8760;52.248;20.952;2023-06-14T09:42:53;19.00;1.00
17284;DHT22;8760;52.248;20.952;2023-06-14T09:45:25;18.90;1.00
17284;DHT22;8760;52.248;20.952;2023-06-14T09:47:55;18.90;99.90
17284;DHT22;8760;52.248;20.952;2023-06-14T09:50:22;18.80;1.00
17284;DHT22;8760;52.248;20.952;2023-06-14T09:52:52;18.60;1.00
17284;DHT22;8760;52.248;20.952;2023-06-14T09:55:19;18.60;99.90
17284;DHT22;8760;52.248;20.952;2023-06-14T09:57:47;18.60;99.90
17284;DHT22;8760;52.248;20.952;2023-06-14T10:00:17;18.80;1.00
17284;DHT22;8760;52.248;20.952;2023-06-14T10:02:51;19.00;7.00
17284;DHT22;8760;52.248;20.952;2023-06-14T10:05:21;19.20;99.90
17284;DHT22;8760;52.248;20.952;2023-06-14T10:07:53;19.50;1.00
17284;DHT22;8760;52.248;20.952;2023-06-14T10:10:22;19.70;90.60
17284;DHT22;8760;52.248;20.952;2023-06-14T10:12:49;20.00;99.90
17284;DHT22;8760;52.248;20.952;2023-06-14T10:15:20;20.00;99.90
17284;DHT22;8760;52.248;20.952;2023-06-14T10:17:53;20.30;99.90
17284;DHT22;8760;52.248;20.952;2023-06-14T10:20:27;20.50;69.70
17284;DHT22;8760;52.248;20.952;2023-06-14T10:23:00;20.70;2.20
17284;DHT22;8760;52.248;20.952;2023-06-14T10:25:29;21.00;1.00
17284;DHT22;8760;52.248;20.952;2023-06-14T10:28:05;21.10;99.90
17284;DHT22;8760;52.248;20.952;2023-06-14T10:31:01;21.50;99.90
17284;DHT22;8760;52.248;20.952;2023-06-14T10:33:31;22.50;1.00
17284;DHT22;8760;52.248;20.952;2023-06-14T10:36:25;22.80;1.00
17284;DHT22;8760;52.248;20.952;2023-06-14T10:39:01;22.50;1.00
17284;DHT22;8760;52.248;20.952;2023-06-14T10:41:31;22.20;1.00
17284;DHT22;8760;52.248;20.952;2023-06-14T10:44:37;21.90;1.00
17284;DHT22;8760;52.248;20.952;2023-06-14T10:47:07;21.70;1.00
17284;DHT22;8760;52.248;20.952;2023-06-14T10:49:40;21.60;1.00
17284;DHT22;8760;52.248;20.952;2023-06-14T10:52:09;21.50;1.00
17284;DHT22;8760;52.248;20.952;2023-06-14T10:55:10;21.30;1.00
17284;DHT22;8760;52.248;20.952;2023-06-14T10:57:39;21.00;1.00
17284;DHT22;8760;52.248;20.952;2023-06-14T11:00:08;21.10;1.00
17284;DHT22;8760;52.248;20.952;2023-06-14T11:05:54;21.20;1.00
17284;DHT22;8760;52.248;20.952;2023-06-14T11:08:48;21.20;1.00
17284;DHT22;8760;52.248;20.952;2023-06-14T11:11:18;21.30;1.00
17284;DHT22;8760;52.248;20.952;2023-06-14T11:13:47;21.30;1.00
17284;DHT22;8760;52.248;20.952;2023-06-14T11:16:15;21.30;1.00
17284;DHT22;8760;52.248;20.952;2023-06-14T11:18:44;21.30;1.00
17284;DHT22;8760;52.248;20.952;2023-06-14T11:21:15;21.60;1.00
17284;DHT22;8760;52.248;20.952;2023-06-14T11:23:49;21.80;1.00
17284;DHT22;8760;52.248;20.952;2023-06-14T11:26:16;21.90;1.00
17284;DHT22;8760;52.248;20.952;2023-06-14T11:28:55;21.90;1.00
17284;DHT22;8760;52.248;20.952;2023-06-14T11:31:23;21.90;1.00
17284;DHT22;8760;52.248;20.952;2023-06-14T11:33:50;21.70;99.90
17284;DHT22;8760;52.248;20.952;2023-06-14T11:36:18;21.50;99.90
17284;DHT22;8760;52.248;20.952;2023-06-14T11:38:45;21.80;99.90
17284;DHT22;8760;52.248;20.952;2023-06-14T11:41:13;22.30;1.00
17284;DHT22;8760;52.248;20.952;2023-06-14T11:43:40;23.20;99.90
17284;DHT22;8760;52.248;20.952;2023-06-14T11:46:12;23.70;99.90
17284;DHT22;8760;52.248;20.952;2023-06-14T11:48:42;23.90;99.90
17284;DHT22;8760;52.248;20.952;2023-06-14T11:51:09;24.00;99.90
17284;DHT22;8760;52.248;20.952;2023-06-14T11:53:38;23.30;99.90
17284;DHT22;8760;52.248;20.952;2023-06-14T11:56:05;23.20;99.90
17284;DHT22;8760;52.248;20.952;2023-06-14T11:58:32;22.90;99.90
17284;DHT22;8760;52.248;20.952;2023-06-14T12:00:59;22.50;99.90
17284;DHT22;8760;52.248;20.952;2023-06-14T12:03:28;22.30;99.90
17284;DHT22;8760;52.248;20.952;2023-06-14T12:06:05;22.10;99.90
17284;DHT22;8760;52.248;20.952;2023-06-14T12:08:33;22.20;99.90
17284;DHT22;8760;52.248;20.952;2023-06-14T12:11:06;22.30;99.90
17284;DHT22;8760;52.248;20.952;2023-06-14T12:13:38;22.50;99.90
17284;DHT22;8760;52.248;20.952;2023-06-14T12:16:07;22.80;99.90
17284;DHT22;8760;52.248;20.952;2023-06-14T12:18:35;23.40;99.90
17284;DHT22;8760;52.248;20.952;2023-06-14T12:21:04;23.60;99.90
17284;DHT22;8760;52.248;20.952;2023-06-14T12:23:49;23.40;99.90
17284;DHT22;8760;52.248;20.952;2023-06-14T12:26:19;22.90;99.90
17284;DHT22;8760;52.248;20.952;2023-06-14T12:28:47;22.60;99.90
17284;DHT22;8760;52.248;20.952;2023-06-14T12:31:15;22.40;99.90
17284;DHT22;8760;52.248;20.952;2023-06-14T12:33:43;22.10;99.90
17284;DHT22;8760;52.248;20.952;2023-06-14T12:36:11;21.90;99.90
17284;DHT22;8760;52.248;20.952;2023-06-14T12:38:38;21.70;99.90
17284;DHT22;8760;52.248;20.952;2023-06-14T12:41:05;21.80;99.90
17284;DHT22;8760;52.248;20.952;2023-06-14T12:43:34;21.90;99.90
17284;DHT22;8760;52.248;20.952;2023-06-14T12:46:01;21.90;99.90
17284;DHT22;8760;52.248;20.952;2023-06-14T12:48:28;21.90;99.90
17284;DHT22;8760;52.248;20.952;2023-06-14T12:50:56;21.80;99.90
17284;DHT22;8760;52.248;20.952;2023-06-14T12:53:23;21.70;99.90
17284;DHT22;8760;52.248;20.952;2023-06-14T12:55:50;21.60;99.90
17284;DHT22;8760;52.248;20.952;2023-06-14T12:58:17;21.50;99.90
17284;DHT22;8760;52.248;20.952;2023-06-14T13:00:46;21.70;99.90
17284;DHT22;8760;52.248;20.952;2023-06-14T13:03:14;22.00;99.90
17284;DHT22;8760;52.248;20.952;2023-06-14T13:05:41;22.30;99.90
17284;DHT22;8760;52.248;20.952;2023-06-14T13:08:08;22.50;99.90
17284;DHT22;8760;52.248;20.952;2023-06-14T13:10:35;22.60;99.90
17284;DHT22;8760;52.248;20.952;2023-06-14T13:13:02;22.50;99.90
17284;DHT22;8760;52.248;20.952;2023-06-14T13:15:29;22.30;99.90
17284;DHT22;8760;52.248;20.952;2023-06-14T13:17:57;22.00;99.90
17284;DHT22;8760;52.248;20.952;2023-06-14T13:20:24;21.70;99.90
17284;DHT22;8760;52.248;20.952;2023-06-14T13:22:51;21.50;99.90
17284;DHT22;8760;52.248;20.952;2023-06-14T13:25:18;21.50;99.90
17284;DHT22;8760;52.248;20.952;2023-06-14T13:27:45;21.60;99.90
17284;DHT22;8760;52.248;20.952;2023-06-14T13:30:12;21.50;99.90
17284;DHT22;8760;52.248;20.952;2023-06-14T13:32:39;21.50;99.90
17284;DHT22;8760;52.248;20.952;2023-06-14T13:35:08;21.30;99.90
17284;DHT22;8760;52.248;20.952;2023-06-14T13:37:35;21.30;99.90
17284;DHT22;8760;52.248;20.952;2023-06-14T13:40:03;21.40;99.90
17284;DHT22;8760;52.248;20.952;2023-06-14T13:42:30;21.40;99.90
17284;DHT22;8760;52.248;20.952;2023-06-14T13:44:58;21.60;99.90
17284;DHT22;8760;52.248;20.952;2023-06-14T13:47:25;21.80;99.90
17284;DHT22;8760;52.248;20.952;2023-06-14T13:49:52;21.60;99.90
17284;DHT22;8760;52.248;20.952;2023-06-14T13:52:20;21.50;99.90
17284;DHT22;8760;52.248;20.952;2023-06-14T13:54:47;21.30;99.90
17284;DHT22;8760;52.248;20.952;2023-06-14T13:57:15;21.10;99.90
17284;DHT22;8760;52.248;20.952;2023-06-14T13:59:42;21.00;99.90
17284;DHT22;8760;52.248;20.952;2023-06-14T14:02:09;20.80;99.90
17284;DHT22;8760;52.248;20.952;2023-06-14T14:04:37;20.70;99.90
17284;DHT22;8760;52.248;20.952;2023-06-14T14:07:05;20.50;99.90
17284;DHT22;8760;52.248;20.952;2023-06-14T14:09:34;20.70;99.90
17284;DHT22;8760;52.248;20.952;2023-06-14T14:12:03;21.00;99.90
17284;DHT22;8760;52.248;20.952;2023-06-14T14:14:31;21.30;99.90
17284;DHT22;8760;52.248;20.952;2023-06-14T14:16:58;21.50;99.90
17284;DHT22;8760;52.248;20.952;2023-06-14T14:19:25;21.70;99.90
17284;DHT22;8760;52.248;20.952;2023-06-14T14:21:52;21.90;99.90
17284;DHT22;8760;52.248;20.952;2023-06-14T14:24:20;21.90;99.90
17284;DHT22;8760;52.248;20.952;2023-06-14T14:26:48;21.70;99.90
17284;DHT22;8760;52.248;20.952;2023-06-14T14:29:15;21.60;99.90
17284;DHT22;8760;52.248;20.952;2023-06-14T14:31:42;21.50;99.90
17284;DHT22;8760;52.248;20.952;2023-06-14T14:34:09;21.30;99.90
17284;DHT22;8760;52.248;20.952;2023-06-14T14:36:36;21.20;99.90
17284;DHT22;8760;52.248;20.952;2023-06-14T14:39:06;21.10;99.90
17284;DHT22;8760;52.248;20.952;2023-06-14T14:41:33;21.10;99.90
17284;DHT22;8760;52.248;20.952;2023-06-14T14:44:02;21.10;99.90
17284;DHT22;8760;52.248;20.952;2023-06-14T14:46:28;21.00;99.90
17284;DHT22;8760;52.248;20.952;2023-06-14T14:48:55;20.90;99.90
17284;DHT22;8760;52.248;20.952;2023-06-14T14:51:24;20.70;99.90
17284;DHT22;8760;52.248;20.952;2023-06-14T14:53:51;20.50;99.90
17284;DHT22;8760;52.248;20.952;2023-06-14T14:56:18;20.50;99.90
17284;DHT22;8760;52.248;20.952;2023-06-14T14:58:44;20.50;1.00
17284;DHT22;8760;52.248;20.952;2023-06-14T15:01:13;20.30;1.00
17284;DHT22;8760;52.248;20.952;2023-06-14T15:03:40;20.20;1.00
17284;DHT22;8760;52.248;20.952;2023-06-14T15:06:07;20.10;1.00
17284;DHT22;8760;52.248;20.952;2023-06-14T15:08:34;20.10;1.00
17284;DHT22;8760;52.248;20.952;2023-06-14T15:11:01;20.10;1.00
17284;DHT22;8760;52.248;20.952;2023-06-14T15:13:28;20.00;1.00
17284;DHT22;8760;52.248;20.952;2023-06-14T15:15:55;20.00;1.00
17284;DHT22;8760;52.248;20.952;2023-06-14T15:18:24;19.90;1.00
17284;DHT22;8760;52.248;20.952;2023-06-14T15:20:51;19.70;1.00
17284;DHT22;8760;52.248;20.952;2023-06-14T15:23:17;19.60;99.90
17284;DHT22;8760;52.248;20.952;2023-06-14T15:25:46;19.50;99.90
17284;DHT22;8760;52.248;20.952;2023-06-14T15:28:13;19.40;99.90
17284;DHT22;8760;52.248;20.952;2023-06-14T15:30:40;19.30;99.90
17284;DHT22;8760;52.248;20.952;2023-06-14T15:33:07;19.20;99.90
17284;DHT22;8760;52.248;20.952;2023-06-14T15:35:36;19.10;1.00
17284;DHT22;8760;52.248;20.952;2023-06-14T15:38:03;19.20;1.00
17284;DHT22;8760;52.248;20.952;2023-06-14T15:40:30;19.40;99.90
17284;DHT22;8760;52.248;20.952;2023-06-14T15:42:57;19.60;99.90